createdAt,value
2018-10-09T00:00:45.093Z,11.87
2018-10-09T00:03:12.212Z,10.80
2018-10-09T00:05:39.406Z,10.90
2018-10-09T00:08:06.575Z,9.00
2018-10-09T00:10:33.918Z,12.40
2018-10-09T00:13:01.147Z,11.63
2018-10-09T00:15:28.271Z,10.47
2018-10-09T00:17:55.556Z,10.00
2018-10-09T00:20:24.279Z,9.57
2018-10-09T00:22:52.814Z,14.40
2018-10-09T00:25:19.958Z,10.57
2018-10-09T00:27:47.115Z,11.53
2018-10-09T00:30:14.254Z,12.53
2018-10-09T00:32:41.471Z,15.13
2018-10-09T00:35:08.587Z,10.73
2018-10-09T00:37:36.107Z,10.93
2018-10-09T00:40:03.479Z,13.10
2018-10-09T00:42:30.921Z,13.53
2018-10-09T00:44:58.079Z,13.83
2018-10-09T00:47:25.213Z,11.43
2018-10-09T00:52:26.902Z,9.30
2018-10-09T00:54:54.241Z,12.63
2018-10-09T00:57:21.419Z,9.60
2018-10-09T00:59:48.554Z,13.77
2018-10-09T01:02:15.727Z,10.57
2018-10-09T01:04:42.911Z,12.67
2018-10-09T01:07:10.095Z,13.00
2018-10-09T01:09:37.357Z,9.03
2018-10-09T01:12:04.525Z,9.63
2018-10-09T01:14:31.678Z,10.67
2018-10-09T01:16:58.828Z,10.73
2018-10-09T01:19:26.005Z,9.53
2018-10-09T01:21:53.235Z,12.03
2018-10-09T01:24:20.398Z,11.90
2018-10-09T01:26:47.780Z,10.63
2018-10-09T01:29:15.431Z,12.53
2018-10-09T01:31:42.678Z,14.00
2018-10-09T01:34:09.800Z,12.00
2018-10-09T01:36:36.947Z,9.63
2018-10-09T01:39:05.852Z,11.70
2018-10-09T01:41:32.989Z,17.27
2018-10-09T01:44:00.146Z,16.37
2018-10-09T01:46:27.328Z,13.30
2018-10-09T01:48:54.518Z,11.00
2018-10-09T01:51:21.686Z,11.63
2018-10-09T01:53:48.816Z,12.23
2018-10-09T01:56:15.943Z,10.87
2018-10-09T01:58:43.307Z,12.40
2018-10-09T02:01:10.455Z,11.73
2018-10-09T02:03:37.603Z,12.93
2018-10-09T02:06:05.833Z,13.27
2018-10-09T02:08:32.989Z,14.30
2018-10-09T02:11:00.244Z,12.23
2018-10-09T02:13:27.395Z,10.00
2018-10-09T02:15:54.559Z,13.60
2018-10-09T02:18:21.743Z,15.53
2018-10-09T02:20:48.912Z,12.40
2018-10-09T02:23:16.067Z,12.63
2018-10-09T02:25:43.195Z,11.47
2018-10-09T02:28:10.388Z,10.13
2018-10-09T02:30:37.526Z,12.27
2018-10-09T02:33:04.671Z,14.20
2018-10-09T02:35:31.834Z,11.50
2018-10-09T02:37:58.955Z,13.50
2018-10-09T02:40:26.093Z,13.13
2018-10-09T02:42:53.259Z,11.13
2018-10-09T02:45:20.407Z,11.87
2018-10-09T02:47:47.561Z,17.47
2018-10-09T02:50:14.754Z,12.40
2018-10-09T02:52:41.886Z,11.43
2018-10-09T02:55:09.017Z,12.50
2018-10-09T02:57:36.161Z,11.07
2018-10-09T03:00:03.415Z,12.33
2018-10-09T03:02:30.552Z,13.03
2018-10-09T03:04:57.679Z,12.07
2018-10-09T03:07:24.948Z,11.60
2018-10-09T03:09:52.084Z,15.37
2018-10-09T03:12:19.207Z,14.03
2018-10-09T03:14:46.344Z,15.93
2018-10-09T03:17:13.527Z,15.13
2018-10-09T03:19:40.665Z,13.37
2018-10-09T03:22:08.044Z,13.60
2018-10-09T03:24:35.223Z,15.57
2018-10-09T03:27:02.363Z,12.53
2018-10-09T03:29:29.480Z,14.43
2018-10-09T03:31:56.616Z,11.30
2018-10-09T03:34:23.763Z,14.40
2018-10-09T03:36:57.875Z,20.13
2018-10-09T03:39:25.021Z,13.70
2018-10-09T03:41:52.147Z,13.83
2018-10-09T03:44:19.321Z,11.60
2018-10-09T03:46:46.615Z,16.07
2018-10-09T03:49:13.755Z,14.33
2018-10-09T03:51:40.900Z,14.10
2018-10-09T03:54:08.167Z,13.50
2018-10-09T03:56:35.340Z,16.03
2018-10-09T03:59:02.639Z,13.57
2018-10-09T04:01:29.814Z,17.90
2018-10-09T04:03:57.492Z,14.50
2018-10-09T04:06:24.638Z,14.30
2018-10-09T04:08:51.813Z,15.07
2018-10-09T04:11:19.143Z,14.40
2018-10-09T04:13:46.303Z,14.77
2018-10-09T04:16:13.490Z,17.47
2018-10-09T04:18:41.248Z,14.03
2018-10-09T04:21:08.874Z,16.60
2018-10-09T04:23:36.346Z,16.50
2018-10-09T04:26:03.511Z,16.10
2018-10-09T04:28:30.699Z,18.50
2018-10-09T04:30:57.855Z,18.03
2018-10-09T04:33:24.971Z,16.10
2018-10-09T04:35:52.138Z,15.57
2018-10-09T04:38:19.263Z,15.67
2018-10-09T04:40:46.383Z,15.33
2018-10-09T04:43:13.499Z,18.70
2018-10-09T04:45:40.643Z,17.10
2018-10-09T04:48:07.772Z,20.20
2018-10-09T04:50:34.903Z,18.00
2018-10-09T04:53:02.117Z,16.60
2018-10-09T04:55:29.164Z,18.33
2018-10-09T04:57:56.291Z,16.87
2018-10-09T05:00:23.426Z,16.97
2018-10-09T05:02:50.575Z,17.93
2018-10-09T05:05:17.730Z,15.73
2018-10-09T05:07:44.891Z,26.33
2018-10-09T05:10:12.191Z,17.60
2018-10-09T05:12:39.327Z,17.17
2018-10-09T05:15:06.759Z,14.67
2018-10-09T05:17:33.917Z,15.40
2018-10-09T05:20:01.059Z,17.77
2018-10-09T05:22:28.188Z,18.70
2018-10-09T05:24:55.326Z,17.67
2018-10-09T05:27:22.464Z,24.70
2018-10-09T05:29:49.726Z,20.07
2018-10-09T05:32:16.891Z,18.47
2018-10-09T05:34:44.044Z,19.40
2018-10-09T05:37:11.175Z,17.73
2018-10-09T05:39:38.295Z,20.60
2018-10-09T05:42:05.480Z,20.83
2018-10-09T05:44:32.627Z,18.17
2018-10-09T05:46:59.779Z,19.03
2018-10-09T05:49:26.928Z,20.17
2018-10-09T05:51:54.091Z,17.70
2018-10-09T05:54:21.231Z,18.90
2018-10-09T05:56:48.419Z,18.90
2018-10-09T05:59:15.563Z,18.87
2018-10-09T06:01:42.724Z,17.87
2018-10-09T06:04:10.645Z,20.57
2018-10-09T06:06:37.810Z,21.27
2018-10-09T06:09:06.844Z,21.47
2018-10-09T06:11:34.008Z,22.27
2018-10-09T06:14:01.146Z,21.87
2018-10-09T06:16:28.269Z,22.90
2018-10-09T06:18:55.473Z,19.70
2018-10-09T06:21:22.676Z,19.70
2018-10-09T06:23:49.799Z,22.20
2018-10-09T06:26:16.947Z,18.10
2018-10-09T06:28:44.079Z,18.53
2018-10-09T06:31:11.256Z,18.37
2018-10-09T06:33:38.417Z,18.23
2018-10-09T06:36:05.836Z,17.10
2018-10-09T06:38:32.972Z,19.07
2018-10-09T06:41:00.113Z,22.73
2018-10-09T06:43:27.319Z,15.20
2018-10-09T06:45:54.492Z,14.13
2018-10-09T06:48:21.649Z,20.13
2018-10-09T06:50:48.791Z,15.20
2018-10-09T06:53:15.951Z,16.70
2018-10-09T06:55:43.116Z,13.77
2018-10-09T06:58:10.292Z,15.53
2018-10-09T07:00:37.459Z,17.60
2018-10-09T07:03:04.795Z,18.10
2018-10-09T07:05:31.983Z,20.30
2018-10-09T07:07:59.148Z,28.00
2018-10-09T07:10:26.288Z,26.90
2018-10-09T07:12:53.768Z,28.30
2018-10-09T07:15:20.947Z,21.73
2018-10-09T07:17:48.129Z,22.03
2018-10-09T07:20:15.256Z,19.57
2018-10-09T07:22:42.407Z,22.77
2018-10-09T07:25:09.681Z,25.43
2018-10-09T07:27:36.868Z,23.40
2018-10-09T07:30:04.917Z,25.00
2018-10-09T07:32:32.102Z,19.90
2018-10-09T07:34:59.292Z,19.73
2018-10-09T07:37:27.430Z,19.53
2018-10-09T07:39:54.556Z,29.17
2018-10-09T07:42:21.696Z,19.00
2018-10-09T07:44:48.860Z,14.87
2018-10-09T07:47:16.544Z,18.30
2018-10-09T07:49:43.683Z,21.03
2018-10-09T07:52:10.826Z,18.90
2018-10-09T07:54:38.221Z,14.83
2018-10-09T07:57:05.552Z,28.07
2018-10-09T07:59:32.678Z,21.23
2018-10-09T08:01:59.837Z,30.17
2018-10-09T08:04:26.983Z,33.03
2018-10-09T08:06:54.131Z,19.37
2018-10-09T08:09:21.252Z,34.67
2018-10-09T08:11:48.388Z,27.63
2018-10-09T08:14:15.541Z,34.67
2018-10-09T08:16:42.676Z,30.00
2018-10-09T08:19:09.824Z,27.33
2018-10-09T08:21:36.961Z,31.53
2018-10-09T08:24:04.292Z,37.67
2018-10-09T08:26:31.527Z,31.83
2018-10-09T08:28:58.694Z,29.63
2018-10-09T08:31:25.834Z,31.00
2018-10-09T08:33:52.984Z,38.50
2018-10-09T08:36:20.131Z,35.77
2018-10-09T08:38:47.270Z,50.37
2018-10-09T08:41:14.662Z,36.00
2018-10-09T08:43:41.775Z,39.73
2018-10-09T08:46:08.959Z,23.30
2018-10-09T08:48:36.082Z,44.90
2018-10-09T08:51:03.275Z,31.90
2018-10-09T08:53:30.412Z,34.57
2018-10-09T08:55:57.560Z,24.47
2018-10-09T08:58:24.719Z,25.57
2018-10-09T09:00:51.861Z,24.57
2018-10-09T09:03:19.044Z,28.40
2018-10-09T09:05:46.140Z,20.27
2018-10-09T09:08:13.264Z,24.07
2018-10-09T09:10:40.424Z,35.43
2018-10-09T09:13:07.573Z,28.67
2018-10-09T09:15:34.740Z,32.13
2018-10-09T09:18:01.939Z,26.20
2018-10-09T09:20:29.093Z,31.17
2018-10-09T09:22:56.198Z,25.03
2018-10-09T09:25:23.336Z,28.27
2018-10-09T09:27:50.634Z,30.83
2018-10-09T09:30:17.748Z,28.20
2018-10-09T09:32:44.884Z,21.97
2018-10-09T09:35:12.019Z,25.37
2018-10-09T09:37:39.153Z,24.67
2018-10-09T09:40:06.764Z,24.70
2018-10-09T09:42:33.898Z,21.97
2018-10-09T09:45:01.044Z,23.40
2018-10-09T09:47:28.203Z,28.50
2018-10-09T09:49:55.336Z,27.70
2018-10-09T09:52:22.787Z,28.00
2018-10-09T09:54:49.951Z,28.83
2018-10-09T09:57:17.127Z,28.47
2018-10-09T09:59:44.570Z,26.97
2018-10-09T10:02:11.708Z,30.30
2018-10-09T10:04:38.860Z,35.57
2018-10-09T10:07:06.031Z,30.13
2018-10-09T10:09:33.160Z,39.13
2018-10-09T10:12:00.325Z,35.50
2018-10-09T10:14:27.456Z,37.50
2018-10-09T10:16:54.652Z,35.50
2018-10-09T10:19:21.796Z,31.63
2018-10-09T10:21:48.989Z,43.33
2018-10-09T10:24:23.060Z,40.27
2018-10-09T10:26:50.349Z,43.83
2018-10-09T10:29:17.435Z,50.30
2018-10-09T10:31:44.543Z,47.80
2018-10-09T10:34:11.704Z,46.10
2018-10-09T10:36:38.851Z,44.10
2018-10-09T10:39:08.840Z,44.50
2018-10-09T10:41:36.336Z,45.03
2018-10-09T10:44:03.523Z,46.17
2018-10-09T10:46:37.590Z,42.60
2018-10-09T10:49:08.367Z,45.90
2018-10-09T10:51:35.841Z,41.97
2018-10-09T10:54:03.054Z,40.17
2018-10-09T10:56:30.220Z,43.27
2018-10-09T10:58:57.382Z,38.60
2018-10-09T11:01:24.598Z,43.73
2018-10-09T11:03:51.708Z,50.13
2018-10-09T11:06:18.836Z,41.47
2018-10-09T11:08:46.611Z,43.53
2018-10-09T11:11:13.769Z,43.83
2018-10-09T11:13:40.887Z,40.53
2018-10-09T11:16:08.377Z,45.10
2018-10-09T11:18:35.628Z,47.37
2018-10-09T11:21:02.847Z,41.07
2018-10-09T11:23:29.927Z,44.60
2018-10-09T11:25:57.061Z,46.00
2018-10-09T11:28:24.211Z,41.07
2018-10-09T11:30:51.343Z,43.00
2018-10-09T11:33:18.481Z,42.50
2018-10-09T11:35:45.616Z,43.87
2018-10-09T11:38:13.032Z,41.53
2018-10-09T11:40:40.624Z,41.33
2018-10-09T11:43:07.760Z,40.57
2018-10-09T11:45:34.923Z,44.00
2018-10-09T11:48:02.145Z,47.40
2018-10-09T11:50:29.296Z,45.50
2018-10-09T11:52:56.444Z,40.40
2018-10-09T11:55:23.686Z,39.10
2018-10-09T11:57:50.832Z,42.53
2018-10-09T12:00:17.996Z,40.77
2018-10-09T12:02:45.189Z,39.90
2018-10-09T12:05:12.304Z,39.80
2018-10-09T12:07:39.448Z,41.57
2018-10-09T12:10:06.604Z,40.87
2018-10-09T12:12:33.802Z,43.33
2018-10-09T12:15:00.953Z,43.83
2018-10-09T12:17:28.091Z,38.27
2018-10-09T12:19:55.240Z,42.73
2018-10-09T12:22:22.661Z,38.37
2018-10-09T12:24:49.812Z,39.73
2018-10-09T12:27:17.078Z,47.07
2018-10-09T12:29:44.268Z,45.53
2018-10-09T12:32:11.435Z,40.50
2018-10-09T12:34:39.268Z,41.37
2018-10-09T12:37:06.388Z,47.60
2018-10-09T12:39:33.537Z,45.97
2018-10-09T12:42:07.528Z,41.73
2018-10-09T12:44:34.679Z,48.60
2018-10-09T12:47:01.833Z,42.27
2018-10-09T12:49:28.991Z,39.53
2018-10-09T12:51:56.123Z,39.57
2018-10-09T12:54:23.236Z,44.67
2018-10-09T12:56:50.448Z,42.83
2018-10-09T12:59:17.512Z,39.10
2018-10-09T13:01:44.651Z,43.00
2018-10-09T13:04:11.797Z,39.90
2018-10-09T13:06:38.943Z,41.17
2018-10-09T13:09:08.364Z,43.93
2018-10-09T13:11:35.511Z,42.77
2018-10-09T13:14:02.698Z,41.67
2018-10-09T13:16:29.912Z,38.77
2018-10-09T13:18:57.078Z,40.90
2018-10-09T13:21:24.364Z,40.63
2018-10-09T13:23:51.436Z,38.00
2018-10-09T13:26:18.573Z,37.87
2018-10-09T13:28:45.728Z,36.67
2018-10-09T13:31:12.914Z,36.90
2018-10-09T13:33:40.035Z,41.33
2018-10-09T13:36:07.234Z,37.07
2018-10-09T13:38:34.376Z,42.17
2018-10-09T13:41:01.584Z,35.83
2018-10-09T13:43:28.675Z,38.90
2018-10-09T13:45:55.811Z,40.67
2018-10-09T13:48:22.942Z,41.30
2018-10-09T13:50:50.091Z,42.63
2018-10-09T13:53:17.215Z,38.77
2018-10-09T13:55:44.356Z,39.07
2018-10-09T13:58:11.525Z,42.90
2018-10-09T14:00:38.676Z,43.53
2018-10-09T14:03:05.896Z,47.03
2018-10-09T14:05:33.005Z,50.27
2018-10-09T14:08:00.154Z,48.70
2018-10-09T14:10:27.284Z,40.43
2018-10-09T14:12:54.399Z,45.53
2018-10-09T14:15:21.544Z,45.40
2018-10-09T14:17:48.736Z,50.30
2018-10-09T14:20:15.899Z,43.30
2018-10-09T14:22:43.095Z,51.83
2018-10-09T14:25:10.220Z,41.83
2018-10-09T14:27:37.370Z,44.90
2018-10-09T14:30:04.983Z,40.00
2018-10-09T14:32:32.103Z,32.47
2018-10-09T14:34:59.265Z,34.03
2018-10-09T14:37:26.361Z,40.60
2018-10-09T14:39:53.552Z,36.87
2018-10-09T14:42:20.844Z,34.73
2018-10-09T14:44:47.992Z,35.63
2018-10-09T14:47:15.129Z,41.13
2018-10-09T14:49:42.284Z,31.50
2018-10-09T14:52:09.435Z,31.93
2018-10-09T14:54:36.575Z,32.73
2018-10-09T14:57:03.724Z,28.40
2018-10-09T14:59:30.852Z,27.63
2018-10-09T15:01:57.985Z,32.70
2018-10-09T15:04:25.117Z,29.50
2018-10-09T15:06:52.243Z,22.00
2018-10-09T15:09:19.368Z,22.57
2018-10-09T15:11:46.520Z,21.07
2018-10-09T15:14:13.658Z,24.07
2018-10-09T15:16:40.805Z,22.70
2018-10-09T15:19:08.236Z,21.03
2018-10-09T15:21:35.404Z,20.73
2018-10-09T15:24:02.601Z,25.00
2018-10-09T15:26:29.756Z,28.13
2018-10-09T15:28:57.125Z,23.80
2018-10-09T15:31:24.251Z,19.07
2018-10-09T15:33:51.368Z,23.37
2018-10-09T15:36:18.732Z,21.20
2018-10-09T15:38:46.041Z,21.17
2018-10-09T15:41:13.197Z,22.13
2018-10-09T15:43:40.343Z,32.20
2018-10-09T15:46:07.522Z,28.27
2018-10-09T15:48:34.644Z,25.07
2018-10-09T15:51:01.772Z,31.70
2018-10-09T15:53:28.904Z,26.33
2018-10-09T15:55:56.013Z,34.83
2018-10-09T15:58:23.268Z,24.57
2018-10-09T16:00:50.363Z,24.47
2018-10-09T16:03:17.487Z,26.00
2018-10-09T16:05:44.644Z,23.70
2018-10-09T16:08:11.788Z,26.33
2018-10-09T16:10:38.920Z,27.13
2018-10-09T16:13:06.074Z,27.40
2018-10-09T16:15:33.255Z,24.13
2018-10-09T16:18:00.528Z,23.40
2018-10-09T16:20:27.715Z,21.20
2018-10-09T16:22:54.851Z,27.73
2018-10-09T16:25:21.984Z,26.27
2018-10-09T16:27:49.120Z,30.40
2018-10-09T16:30:16.325Z,23.83
2018-10-09T16:32:43.707Z,24.93
2018-10-09T16:35:10.724Z,24.53
2018-10-09T16:37:38.903Z,23.43
2018-10-09T16:40:06.064Z,25.00
2018-10-09T16:42:33.268Z,24.23
2018-10-09T16:45:00.416Z,22.53
2018-10-09T16:47:27.653Z,22.47
2018-10-09T16:49:54.769Z,21.83
2018-10-09T16:52:22.614Z,20.33
2018-10-09T16:54:49.773Z,20.53
2018-10-09T16:57:16.947Z,21.63
2018-10-09T16:59:44.130Z,21.80
2018-10-09T17:02:11.375Z,21.67
2018-10-09T17:04:38.612Z,21.53
2018-10-09T17:07:05.814Z,20.03
2018-10-09T17:09:32.961Z,21.13
2018-10-09T17:12:00.088Z,24.43
2018-10-09T17:14:27.348Z,28.30
2018-10-09T17:16:54.499Z,23.53
2018-10-09T17:19:21.659Z,24.80
2018-10-09T17:21:48.783Z,20.10
2018-10-09T17:24:15.920Z,25.60
2018-10-09T17:26:43.109Z,22.00
2018-10-09T17:29:10.223Z,26.57
2018-10-09T17:31:38.123Z,23.57
2018-10-09T17:34:05.511Z,21.77
2018-10-09T17:36:32.641Z,24.60
2018-10-09T17:38:59.797Z,24.43
2018-10-09T17:41:26.945Z,21.73
2018-10-09T17:43:54.103Z,20.87
2018-10-09T17:46:21.358Z,18.33
2018-10-09T17:48:48.543Z,22.27
2018-10-09T17:51:15.604Z,25.83
2018-10-09T17:53:42.746Z,23.07
2018-10-09T17:56:10.491Z,25.77
2018-10-09T17:58:38.188Z,20.23
2018-10-09T18:01:05.591Z,22.90
2018-10-09T18:03:32.708Z,22.20
2018-10-09T18:05:59.884Z,23.93
2018-10-09T18:08:27.006Z,22.03
2018-10-09T18:10:54.166Z,26.20
2018-10-09T18:13:21.314Z,24.67
2018-10-09T18:15:48.537Z,23.20
2018-10-09T18:18:15.796Z,26.10
2018-10-09T18:20:43.052Z,23.53
2018-10-09T18:23:10.564Z,29.87
2018-10-09T18:25:37.717Z,24.27
2018-10-09T18:28:05.417Z,25.10
2018-10-09T18:30:32.588Z,27.23
2018-10-09T18:32:59.816Z,24.23
2018-10-09T18:35:26.887Z,22.57
2018-10-09T18:37:54.037Z,25.67
2018-10-09T18:40:21.285Z,28.10
2018-10-09T18:42:48.415Z,22.23
2018-10-09T18:45:15.596Z,26.37
2018-10-09T18:47:43.781Z,24.77
2018-10-09T18:50:11.422Z,25.87
2018-10-09T18:52:39.392Z,24.43
2018-10-09T18:55:07.733Z,26.63
2018-10-09T18:57:34.899Z,24.73
2018-10-09T19:00:02.116Z,33.37
2018-10-09T19:02:29.245Z,27.37
2018-10-09T19:04:56.381Z,24.63
2018-10-09T19:07:23.559Z,26.03
2018-10-09T19:09:50.680Z,25.03
2018-10-09T19:12:17.808Z,23.00
2018-10-09T19:14:44.944Z,25.37
2018-10-09T19:17:12.061Z,23.57
2018-10-09T19:19:40.418Z,23.47
2018-10-09T19:22:07.578Z,26.33
2018-10-09T19:24:34.737Z,26.93
2018-10-09T19:27:01.875Z,25.47
2018-10-09T19:29:29.014Z,23.70
2018-10-09T19:31:56.164Z,25.03
2018-10-09T19:34:23.318Z,24.23
2018-10-09T19:36:50.469Z,27.70
2018-10-09T19:39:17.621Z,26.63
2018-10-09T19:41:44.762Z,25.87
2018-10-09T19:44:11.913Z,26.83
2018-10-09T19:46:39.172Z,23.30
2018-10-09T19:49:06.345Z,23.00
2018-10-09T19:51:33.546Z,24.30
2018-10-09T19:54:00.631Z,23.50
2018-10-09T19:56:27.811Z,26.17
2018-10-09T19:58:54.947Z,24.90
2018-10-09T20:01:22.073Z,23.50
2018-10-09T20:03:49.204Z,25.20
2018-10-09T20:06:16.478Z,24.70
2018-10-09T20:08:43.606Z,23.93
2018-10-09T20:11:10.724Z,24.03
2018-10-09T20:13:37.929Z,23.67
2018-10-09T20:16:06.292Z,24.63
2018-10-09T20:18:33.405Z,23.03
2018-10-09T20:21:00.660Z,25.77
2018-10-09T20:23:27.848Z,22.67
2018-10-09T20:25:55.104Z,21.17
2018-10-09T20:28:22.256Z,25.43
2018-10-09T20:30:49.380Z,20.20
2018-10-09T20:33:16.538Z,23.60
2018-10-09T20:35:44.258Z,25.50
2018-10-09T20:38:11.495Z,25.47
2018-10-09T20:40:38.655Z,25.00
2018-10-09T20:43:05.796Z,25.40
2018-10-09T20:45:32.936Z,26.43
2018-10-09T20:48:00.072Z,21.83
2018-10-09T20:50:27.194Z,27.10
2018-10-09T20:52:54.380Z,25.50
2018-10-09T20:55:21.508Z,24.50
2018-10-09T20:57:48.659Z,24.23
2018-10-09T21:00:15.791Z,20.40
2018-10-09T21:02:42.920Z,23.80
2018-10-09T21:05:10.063Z,20.53
2018-10-09T21:07:37.230Z,23.17
2018-10-09T21:10:04.501Z,21.73
2018-10-09T21:12:31.792Z,22.13
2018-10-09T21:14:58.928Z,20.90
2018-10-09T21:17:26.209Z,21.30
2018-10-09T21:19:53.335Z,23.00
2018-10-09T21:22:20.614Z,19.23
2018-10-09T21:24:47.740Z,15.90
2018-10-09T21:27:14.880Z,17.40
2018-10-09T21:29:42.012Z,19.07
2018-10-09T21:32:09.172Z,19.77
2018-10-09T21:34:36.451Z,19.23
2018-10-09T21:37:03.583Z,19.33
2018-10-09T21:39:30.711Z,17.97
2018-10-09T21:41:58.011Z,18.33
2018-10-09T21:44:25.176Z,20.20
2018-10-09T21:46:52.286Z,17.27
2018-10-09T21:49:19.407Z,18.03
2018-10-09T21:51:46.517Z,19.70
2018-10-09T21:54:13.650Z,18.47
2018-10-09T21:56:40.796Z,18.90
2018-10-09T21:59:07.919Z,20.27
2018-10-09T22:01:35.042Z,17.57
2018-10-09T22:04:02.236Z,17.37
2018-10-09T22:06:29.375Z,17.90
2018-10-09T22:08:56.493Z,17.07
2018-10-09T22:11:23.640Z,18.17
2018-10-09T22:13:50.768Z,19.40
2018-10-09T22:16:17.895Z,15.93
2018-10-09T22:18:45.100Z,18.50
2018-10-09T22:21:12.251Z,17.53
2018-10-09T22:23:39.684Z,20.70
2018-10-09T22:26:06.836Z,18.67
2018-10-09T22:28:33.968Z,21.70
2018-10-09T22:31:01.095Z,16.93
2018-10-09T22:33:28.244Z,17.33
2018-10-09T22:35:55.619Z,18.13
2018-10-09T22:38:22.769Z,19.17
2018-10-09T22:40:49.880Z,18.30
2018-10-09T22:43:17.004Z,17.73
2018-10-09T22:45:44.171Z,16.13
2018-10-09T22:48:11.638Z,16.77
2018-10-09T22:50:38.827Z,18.23
2018-10-09T22:53:06.287Z,14.63
2018-10-09T22:55:33.420Z,20.23
2018-10-09T22:58:00.561Z,19.33
2018-10-09T23:00:27.695Z,18.20
2018-10-09T23:02:54.848Z,16.00
2018-10-09T23:05:21.970Z,20.13
2018-10-09T23:07:49.095Z,17.83
2018-10-09T23:10:16.240Z,19.30
2018-10-09T23:12:43.384Z,20.03
2018-10-09T23:15:10.505Z,19.30
2018-10-09T23:17:37.629Z,19.40
2018-10-09T23:20:05.308Z,17.33
2018-10-09T23:22:32.448Z,18.77
2018-10-09T23:24:59.606Z,18.83
2018-10-09T23:27:26.721Z,15.80
2018-10-09T23:29:53.999Z,13.70
2018-10-09T23:32:21.135Z,15.67
2018-10-09T23:34:48.840Z,17.40
2018-10-09T23:37:15.992Z,19.33
2018-10-09T23:39:43.121Z,12.57
2018-10-09T23:42:10.300Z,15.97
2018-10-09T23:44:37.472Z,18.83
2018-10-09T23:47:04.692Z,18.00
2018-10-09T23:49:31.849Z,13.83
2018-10-09T23:51:59.024Z,15.63
2018-10-09T23:54:26.199Z,16.97
2018-10-09T23:56:53.421Z,20.73
2018-10-09T23:59:20.651Z,23.27
